East Alton, IL (62024)

3:22 AM CDT on September 02, 2014 (GMT -0500)
Rosewood Heights | Change Station
CLOSE
Current Station
Personal Weather Station
Location: East Alton, IL
Elevation: 545 ft
Nearby Weather Stations
Active Advisory: Flash Flood Watch Active Notice: Record Report

Elev 545 ft 38.88 °N, 90.07 °W | Updated 5 seconds ago

Rain
Rain
68.4 °F
Feels Like 68.4 °F
N
0.0
Wind Variable Wind from ENE
Gusts 1.0 mph

Today
High -- | Low -- °F
--% Chance of Precip.
Yesterday
High -- | Low -- °F
Precip. -- in
6:30 AM 7:28 PM
Waxing Crescent, 49% visible
Pressure 29.92 in
Visibility 6.0 miles
Clouds Few 600 ft
Scattered Clouds 3000 ft
Mostly Cloudy 10000 ft
Overcast 13000 ft
Dew Point 67 °F
Humidity 96%
Rainfall 1.03 in
Snow Depth Not available.
UV 0 out of 12
Pollen 10.80 out of 12
Ozone Good
PM2.5 Good
Flu Activity Not available.
SPECI KSTL 020813Z 14003KT 6SM RA BR FEW006 SCT030 BKN100 OVC130 21/20 A2992 RMK AO2 TSE11 PRESFR P0005

More Conditions Fewer Conditions

Pressure 29.92 in
Visibility 6.0 miles
Clouds Few 600 ft
Scattered Clouds 3000 ft
Mostly Cloudy 10000 ft
Overcast 13000 ft
Dew Point 67 °F
Humidity 96%
Rainfall 1.03 in
Snow Depth Not available.
UV 0 out of 12
Pollen 10.80 out of 12
Ozone Good
PM2.5 Good
Flu Activity Not available.
SPECI KSTL 020813Z 14003KT 6SM RA BR FEW006 SCT030 BKN100 OVC130 21/20 A2992 RMK AO2 TSE11 PRESFR P0005

More Conditions Fewer Conditions

10-Day Weather Forecast

Almanac

Astronomy

Sep. 02, 2014 Rise Set
Actual Time 6:30 AM CDT 7:28 PM CDT
Civil Twilight 6:02 AM CDT 7:56 PM CDT
Nautical Twilight 5:30 AM CDT 8:28 PM CDT
Astronomical Twilight 4:56 AM CDT 9:01 PM CDT
Moon 2:10 PM CDT No Moon Set
Length of Visible Light 13h 53m
Length of Day
12h 58m
Tomorrow will be 2m 25s shorter.
Waxing Crescent, 49% of the Moon is Illuminated
Today
Waxing Crescent
Sep 2
First Quarter
Sep 8
Full
Sep 15
Last Quarter
Sep 24
New

Today's Extremes

State Highs State Lows

Community

WunderPhotos

Upload Photos

1,749,587 photos uploaded!

WunderBlogs® & News

Nearby

Air Quality

  Air Quality AQ Index Pollutant
Yesterday Good
OZONE
Yesterday Good
PM2.5
Current Good
OZONE
Current Good
PM2.5
Tuesday Moderate
PM2.5
Tuesday Good
OZONE

Snow Depth

Station Depth Elevation
No new snow has been reported.

Earthquake Activity

City Distance Mag. Time & Date
No recent earthquake activity has been reported nearby.
Minimum magnitude displayed is 2.5.

Coastal Water Temperatures

Place Temperature
No Stations Reporting

Nearby Weather Stations